Galati, Romania

9:17 AM EEST on April 25, 2017 (GMT +0300)
Boboc Air Base | | Change Station

Elev 344 ft 45.33 °N, 27.38 °E | Updated 17 minutes ago

Clear
Clear
46 °F
Feels Like 44 °F
N
5
Wind Variable Wind from SW

Today
High -- | Low -- °F
--% Chance of Precip.
Yesterday
High -- | Low -- °F
Precip. -- in
Pressure 30.18 in
Visibility 6.2 miles
Clouds Clear
Windchill 44 °F
Dew Point 37 °F
Humidity 71%
Rainfall 0.00 in
Snow Depth Not available.
6:05 AM 8:06 PM
Waning Crescent, 2% visible
METAR LRBO 250600Z 22004KT 9999 SKC 08/03 Q1022 BLU BLU
Pressure 30.18 in
Visibility 6.2 miles
Clouds Clear
Windchill 44 °F
Dew Point 37 °F
Humidity 71%
Rainfall 0.00 in
Snow Depth Not available.
6:05 AM 8:06 PM
Waning Crescent, 2% visible
METAR LRBO 250600Z 22004KT 9999 SKC 08/03 Q1022 BLU BLU

Get Severe Weather Alerts

Thanks for signing up!

Be on the lookout for a verification email in your inbox.

You'll start receiving the daily forecast at 8 AM.

×

10-Day Weather Forecast

×

Almanac

Astronomy

Apr. 25, 2017 Rise Set
Actual Time
Civil Twilight
Nautical Twilight
Astronomical Twilight
Moon
Length of Visible Light
Length of Day
Tomorrow will be .
, % of the Moon is Illuminated

Today's Extremes

Country Highs Country Lows

Community

WunderPhotos

WunderBlog® & News

Nearby

Air Quality

  Air Quality AQ Index Pollutant
Not available.

Snow Depth

Station Depth Elevation

Earthquake Activity

City Distance Mag. Time & Date
Minimum magnitude displayed is 2.5.

Coastal Water Temperatures

Place Temperature

Stations

Nearby Weather Stations

Station Location Temp. Windchill Dew Point Humidity Wind Precip. Elev Updated Type